Red Avel — FAE6551 — position and weather

sailwx.info

Track history (hours):
 
Tides and Currents Weather Stations Pressure Air Temp Water Temp Dewpoint Dewpoint Depression Visibility Wind Speed Wind Dir Waves Ship Positions

Red Avel

Last reported at 2017-Oct-14 16:25 UTC. Time now 2017-Nov-19 04:57 UTC.
Position N 47°34' W 003°01'.
Warning: this ship's position is 35 days out of date.

Length 10 m.

Type: Sailing vessel. MMSI: 227498870.

Date/timePositionNaut miles runAvg speedWind from/ knotsBaromVisibWave heightAir tempDewpointWater temp
2017-Oct-14 16:25N 47°34' W 003°01'3 6.6
2017-Oct-14 16:00N 47°31' W 003°00'3 5.8
2017-Oct-14 15:30N 47°28' W 002°59'3 5.0
2017-Oct-14 14:56N 47°26' W 002°57'3 0.8
2017-Oct-14 11:50N 47°24' W 002°60'2 5.3
2017-Oct-14 11:30N 47°25' W 002°59'3 6.5
2017-Oct-14 11:00N 47°29' W 002°58'3 6.3
2017-Oct-14 10:29N 47°32' W 002°59'3 6.2
2017-Oct-14 09:57N 47°35' W 003°01'  
2017-Oct-07 14:47N 47°35' W 003°01'1 1.5
2017-Oct-07 14:24N 47°35' W 003°01'4 8.6
2017-Oct-07 14:00N 47°31' W 003°01'2 3.8
2017-Oct-07 13:30N 47°30' W 003°02'4 8.6
2017-Oct-07 13:00N 47°34' W 003°01'  
Track history (hours):
 
Tides and Currents Weather Stations Pressure Air Temp Water Temp Dewpoint Dewpoint Depression Visibility Wind Speed Wind Dir Waves Ship Positions

Red Avel

Last reported at 2017-Oct-14 16:25 UTC. Time now 2017-Nov-19 04:57 UTC.
Position N 47°34' W 003°01'.
Warning: this ship's position is 35 days out of date.

Length 10 m.

Type: Sailing vessel. MMSI: 227498870.

Date/timePositionNaut miles runAvg speedWind from/ knotsBaromVisibWave heightAir tempDewpointWater temp
2017-Oct-14 16:25N 47°34' W 003°01'3 6.6
2017-Oct-14 16:00N 47°31' W 003°00'3 5.8
2017-Oct-14 15:30N 47°28' W 002°59'3 5.0
2017-Oct-14 14:56N 47°26' W 002°57'3 0.8
2017-Oct-14 11:50N 47°24' W 002°60'2 5.3
2017-Oct-14 11:30N 47°25' W 002°59'3 6.5
2017-Oct-14 11:00N 47°29' W 002°58'3 6.3
2017-Oct-14 10:29N 47°32' W 002°59'3 6.2
2017-Oct-14 09:57N 47°35' W 003°01'  
2017-Oct-07 14:47N 47°35' W 003°01'1 1.5
2017-Oct-07 14:24N 47°35' W 003°01'4 8.6
2017-Oct-07 14:00N 47°31' W 003°01'2 3.8
2017-Oct-07 13:30N 47°30' W 003°02'4 8.6
2017-Oct-07 13:00N 47°34' W 003°01'  

Dump ship's entire track history